Cape Lisburne LRRS, AK

11:12 AM AKST on December 21, 2014 (GMT -0900)
Cape Lisburne LRRS | Change Station
CLOSE
Current Station
Airport
Location: Cape Lisburne,
Elevation: 10 ft
Nearby Weather Stations

Elev 10 ft 68.88 °N, 166.13 °W | Updated 17 minutes ago

Light Snow
Light Snow
6 °F
Feels Like -16 °F
N
23
Wind Variable Wind from North
Gusts 31 mph

Today
High -- | Low -- °F
--% Chance of Precip.
Yesterday
High -- | Low -- °F
Precip. -- in
1:30 PM 2:35 PM
Waning Crescent, 0% visible
Pressure 29.65 in
Visibility 7.0 miles
Clouds Mostly Cloudy 1100 ft
Overcast 3000 ft
Windchill -16 °F
Dew Point 3 °F
Humidity 89%
Rainfall 0.00 in
Snow Depth Not available.
UV 0 out of 12
Pollen Not available.
Air Quality Not available.
Flu Activity Not available.
METAR PALU 211955Z AUTO 01020G27KT 7SM -SN BKN011 OVC030 M15/M16 A2964 RMK AO2 PK WND 01030/1920 SNB1855 SLP038 P0000 T11471161

More Conditions Fewer Conditions

Pressure 29.65 in
Visibility 7.0 miles
Clouds Mostly Cloudy 1100 ft
Overcast 3000 ft
Windchill -16 °F
Dew Point 3 °F
Humidity 89%
Rainfall 0.00 in
Snow Depth Not available.
UV 0 out of 12
Pollen Not available.
Air Quality Not available.
Flu Activity Not available.
METAR PALU 211955Z AUTO 01020G27KT 7SM -SN BKN011 OVC030 M15/M16 A2964 RMK AO2 PK WND 01030/1920 SNB1855 SLP038 P0000 T11471161

More Conditions Fewer Conditions

10-Day Weather Forecast

Almanac

Astronomy

Dec. 21, 2014 Rise Set
Actual Time
Civil Twilight
Nautical Twilight
Astronomical Twilight
Moon
Length of Visible Light
Length of Day
Tomorrow will be .
, % of the Moon is Illuminated

Today's Extremes

State Highs State Lows

Community

WunderPhotos

Upload Photos

1,779,469 photos uploaded!

WunderBlogs® & News

Nearby

Air Quality

  Air Quality AQ Index Pollutant
Not available.

Snow Depth

Station Depth Elevation

Earthquake Activity

City Distance Mag. Time & Date
Minimum magnitude displayed is 2.5.

Coastal Water Temperatures

Place Temperature

Nearby Weather Stations